sensor_id;sensor_type;location;lat;lon;timestamp;pressure;altitude;pressure_sealevel;temperature;humidity
21449;BME280;10885;52.830;13.788;2023-03-14T00:01:39;98778.84;;;12.18;74.10
21449;BME280;10885;52.830;13.788;2023-03-14T00:07:00;98774.34;;;12.09;74.26
21449;BME280;10885;52.830;13.788;2023-03-14T00:12:20;98793.88;;;12.03;74.28
21449;BME280;10885;52.830;13.788;2023-03-14T00:17:43;98793.84;;;12.01;74.59
21449;BME280;10885;52.830;13.788;2023-03-14T00:23:04;98770.50;;;11.90;75.04
21449;BME280;10885;52.830;13.788;2023-03-14T00:28:25;98774.44;;;11.76;75.33
21449;BME280;10885;52.830;13.788;2023-03-14T00:33:46;98751.06;;;11.65;75.30
21449;BME280;10885;52.830;13.788;2023-03-14T00:39:07;98732.13;;;11.62;75.23
21449;BME280;10885;52.830;13.788;2023-03-14T00:44:27;98720.06;;;11.58;74.90
21449;BME280;10885;52.830;13.788;2023-03-14T00:49:48;98695.97;;;11.51;75.14
21449;BME280;10885;52.830;13.788;2023-03-14T00:55:09;98698.31;;;11.40;75.29
21449;BME280;10885;52.830;13.788;2023-03-14T01:00:30;98716.88;;;11.31;75.63
21449;BME280;10885;52.830;13.788;2023-03-14T01:05:51;98692.81;;;11.25;75.55
21449;BME280;10885;52.830;13.788;2023-03-14T01:11:24;98678.97;;;11.20;75.60
21449;BME280;10885;52.830;13.788;2023-03-14T01:16:45;98686.69;;;11.20;75.92
21449;BME280;10885;52.830;13.788;2023-03-14T01:22:06;98659.19;;;11.14;76.14
21449;BME280;10885;52.830;13.788;2023-03-14T01:27:27;98667.63;;;11.10;76.61
21449;BME280;10885;52.830;13.788;2023-03-14T01:32:48;98693.16;;;11.05;76.84
21449;BME280;10885;52.830;13.788;2023-03-14T01:38:09;98709.41;;;11.04;77.34
21449;BME280;10885;52.830;13.788;2023-03-14T01:43:30;98725.53;;;11.02;77.27
21449;BME280;10885;52.830;13.788;2023-03-14T01:55:14;98731.56;;;11.02;77.45
21449;BME280;10885;52.830;13.788;2023-03-14T02:00:32;98757.25;;;11.05;77.05
21449;BME280;10885;52.830;13.788;2023-03-14T02:05:53;98763.41;;;11.10;76.73
21449;BME280;10885;52.830;13.788;2023-03-14T02:11:17;98741.13;;;11.09;77.04
21449;BME280;10885;52.830;13.788;2023-03-14T02:16:46;98725.75;;;11.09;77.07
21449;BME280;10885;52.830;13.788;2023-03-14T02:22:45;98712.03;;;11.07;77.35
21449;BME280;10885;52.830;13.788;2023-03-14T02:28:07;98700.09;;;11.09;76.87
21449;BME280;10885;52.830;13.788;2023-03-14T02:33:30;98708.66;;;11.08;76.98
21449;BME280;10885;52.830;13.788;2023-03-14T02:45:00;98685.41;;;11.02;77.33
21449;BME280;10885;52.830;13.788;2023-03-14T02:50:26;98667.38;;;10.99;77.42
21449;BME280;10885;52.830;13.788;2023-03-14T02:55:50;98667.22;;;10.93;77.56
21449;BME280;10885;52.830;13.788;2023-03-14T03:01:13;98658.63;;;10.91;77.78
21449;BME280;10885;52.830;13.788;2023-03-14T03:06:34;98648.28;;;10.86;77.91
21449;BME280;10885;52.830;13.788;2023-03-14T03:11:55;98630.19;;;10.82;78.32
21449;BME280;10885;52.830;13.788;2023-03-14T03:17:19;98626.72;;;10.80;78.18
21449;BME280;10885;52.830;13.788;2023-03-14T03:22:40;98614.78;;;10.80;78.17
21449;BME280;10885;52.830;13.788;2023-03-14T03:28:03;98588.25;;;10.78;78.00
21449;BME280;10885;52.830;13.788;2023-03-14T03:33:30;98588.25;;;10.78;77.76
21449;BME280;10885;52.830;13.788;2023-03-14T03:38:52;98588.25;;;10.77;77.49
21449;BME280;10885;52.830;13.788;2023-03-14T03:44:13;98604.38;;;10.74;77.52
21449;BME280;10885;52.830;13.788;2023-03-14T03:49:34;98607.78;;;10.73;77.88
21449;BME280;10885;52.830;13.788;2023-03-14T03:54:56;98609.44;;;10.71;77.93
21449;BME280;10885;52.830;13.788;2023-03-14T04:00:17;98613.56;;;10.66;77.40
21449;BME280;10885;52.830;13.788;2023-03-14T04:05:38;98611.84;;;10.65;77.49
21449;BME280;10885;52.830;13.788;2023-03-14T04:11:04;98591.22;;;10.59;77.45
21449;BME280;10885;52.830;13.788;2023-03-14T04:16:44;98582.56;;;10.55;77.92
21449;BME280;10885;52.830;13.788;2023-03-14T04:22:08;98618.31;;;10.50;77.79
21449;BME280;10885;52.830;13.788;2023-03-14T04:27:39;98591.00;;;10.51;77.01
21449;BME280;10885;52.830;13.788;2023-03-14T04:33:09;98592.63;;;10.47;77.83
21449;BME280;10885;52.830;13.788;2023-03-14T04:38:40;98588.34;;;10.48;77.50
21449;BME280;10885;52.830;13.788;2023-03-14T04:44:02;98584.94;;;10.47;77.03
21449;BME280;10885;52.830;13.788;2023-03-14T04:49:24;98578.06;;;10.46;76.88
21449;BME280;10885;52.830;13.788;2023-03-14T04:54:45;98567.81;;;10.45;77.41
21449;BME280;10885;52.830;13.788;2023-03-14T05:00:06;98564.34;;;10.44;77.15
21449;BME280;10885;52.830;13.788;2023-03-14T05:05:57;98544.63;;;10.40;76.58
21449;BME280;10885;52.830;13.788;2023-03-14T05:11:48;98538.59;;;10.38;76.70
21449;BME280;10885;52.830;13.788;2023-03-14T05:17:28;98541.94;;;10.35;76.50
21449;BME280;10885;52.830;13.788;2023-03-14T05:23:22;98546.22;;;10.35;76.72
21449;BME280;10885;52.830;13.788;2023-03-14T05:28:43;98535.88;;;10.32;76.29
21449;BME280;10885;52.830;13.788;2023-03-14T05:34:04;98537.56;;;10.31;75.94
21449;BME280;10885;52.830;13.788;2023-03-14T05:39:25;98523.94;;;10.32;75.96
21449;BME280;10885;52.830;13.788;2023-03-14T05:45:20;98514.53;;;10.31;75.95
21449;BME280;10885;52.830;13.788;2023-03-14T05:50:56;98527.34;;;10.31;76.06
21449;BME280;10885;52.830;13.788;2023-03-14T05:56:35;98515.53;;;10.37;75.64
21449;BME280;10885;52.830;13.788;2023-03-14T06:02:05;98531.84;;;10.42;74.89
21449;BME280;10885;52.830;13.788;2023-03-14T06:07:38;98531.06;;;10.44;75.05
21449;BME280;10885;52.830;13.788;2023-03-14T06:13:00;98533.75;;;10.49;74.56
21449;BME280;10885;52.830;13.788;2023-03-14T06:18:21;98525.31;;;10.53;73.78
21449;BME280;10885;52.830;13.788;2023-03-14T06:23:42;98532.28;;;10.59;73.45
21449;BME280;10885;52.830;13.788;2023-03-14T06:29:04;98539.31;;;10.67;73.05
21449;BME280;10885;52.830;13.788;2023-03-14T06:34:27;98539.41;;;10.72;72.60
21449;BME280;10885;52.830;13.788;2023-03-14T06:39:47;98543.09;;;10.83;72.27
21449;BME280;10885;52.830;13.788;2023-03-14T06:45:25;98551.06;;;10.95;70.95
21449;BME280;10885;52.830;13.788;2023-03-14T06:50:48;98540.16;;;11.03;70.58
21449;BME280;10885;52.830;13.788;2023-03-14T06:56:09;98530.13;;;11.13;69.94
21449;BME280;10885;52.830;13.788;2023-03-14T07:01:31;98545.81;;;11.27;68.88
21449;BME280;10885;52.830;13.788;2023-03-14T07:07:00;98550.50;;;11.47;68.25
21449;BME280;10885;52.830;13.788;2023-03-14T07:12:22;98554.25;;;11.63;66.99
21449;BME280;10885;52.830;13.788;2023-03-14T07:17:43;98544.44;;;11.84;66.38
21449;BME280;10885;52.830;13.788;2023-03-14T07:23:04;98574.31;;;12.25;64.77
21449;BME280;10885;52.830;13.788;2023-03-14T07:28:46;98572.31;;;12.56;63.07
21449;BME280;10885;52.830;13.788;2023-03-14T07:34:10;98582.53;;;12.52;63.17
21449;BME280;10885;52.830;13.788;2023-03-14T07:39:37;98579.94;;;12.51;62.34
21449;BME280;10885;52.830;13.788;2023-03-14T07:45:06;98594.34;;;12.91;61.64
21449;BME280;10885;52.830;13.788;2023-03-14T07:50:28;98588.50;;;13.60;58.88
21449;BME280;10885;52.830;13.788;2023-03-14T07:55:51;98592.44;;;13.99;57.42
21449;BME280;10885;52.830;13.788;2023-03-14T08:01:12;98600.47;;;14.28;56.57
21449;BME280;10885;52.830;13.788;2023-03-14T08:06:35;98598.31;;;14.66;54.38
21449;BME280;10885;52.830;13.788;2023-03-14T08:11:56;98589.06;;;16.82;48.58
21449;BME280;10885;52.830;13.788;2023-03-14T08:17:18;98582.31;;;20.98;38.45
21449;BME280;10885;52.830;13.788;2023-03-14T08:22:39;98585.69;;;23.48;33.26
21449;BME280;10885;52.830;13.788;2023-03-14T08:28:01;98588.19;;;24.15;31.05
21449;BME280;10885;52.830;13.788;2023-03-14T08:33:22;98585.63;;;21.58;35.21
21449;BME280;10885;52.830;13.788;2023-03-14T08:38:42;98582.94;;;19.13;39.98
21449;BME280;10885;52.830;13.788;2023-03-14T08:44:03;98588.59;;;20.27;38.38
21449;BME280;10885;52.830;13.788;2023-03-14T08:49:24;98591.31;;;21.78;36.21
21449;BME280;10885;52.830;13.788;2023-03-14T08:54:46;98593.31;;;24.18;31.06
21449;BME280;10885;52.830;13.788;2023-03-14T09:00:07;98587.78;;;19.46;39.33
21449;BME280;10885;52.830;13.788;2023-03-14T09:05:33;98598.50;;;17.37;45.24
21449;BME280;10885;52.830;13.788;2023-03-14T09:10:55;98600.25;;;17.21;45.94
21449;BME280;10885;52.830;13.788;2023-03-14T09:16:15;98600.22;;;16.75;48.03
21449;BME280;10885;52.830;13.788;2023-03-14T09:21:37;98591.59;;;16.49;48.05
21449;BME280;10885;52.830;13.788;2023-03-14T09:26:59;98594.22;;;17.28;46.89
21449;BME280;10885;52.830;13.788;2023-03-14T09:32:20;98577.53;;;18.12;44.61
21449;BME280;10885;52.830;13.788;2023-03-14T09:37:41;98574.44;;;21.96;36.19
21449;BME280;10885;52.830;13.788;2023-03-14T09:43:02;98581.06;;;22.13;34.66
21449;BME280;10885;52.830;13.788;2023-03-14T09:48:29;98566.03;;;25.84;28.77
21449;BME280;10885;52.830;13.788;2023-03-14T09:53:51;98589.19;;;27.10;26.29
21449;BME280;10885;52.830;13.788;2023-03-14T09:59:13;98581.25;;;24.71;29.37
21449;BME280;10885;52.830;13.788;2023-03-14T10:04:36;98570.00;;;19.92;36.79
21449;BME280;10885;52.830;13.788;2023-03-14T10:10:10;98576.13;;;17.08;43.22
21449;BME280;10885;52.830;13.788;2023-03-14T10:15:37;98581.16;;;16.09;46.04
21449;BME280;10885;52.830;13.788;2023-03-14T10:26:34;98594.31;;;15.02;49.43
21449;BME280;10885;52.830;13.788;2023-03-14T10:32:03;98579.41;;;14.64;49.83
21449;BME280;10885;52.830;13.788;2023-03-14T10:37:26;98591.09;;;14.35;50.98
21449;BME280;10885;52.830;13.788;2023-03-14T10:42:48;98594.19;;;14.04;51.53
21449;BME280;10885;52.830;13.788;2023-03-14T10:48:19;98600.94;;;13.93;52.31
21449;BME280;10885;52.830;13.788;2023-03-14T10:53:45;98604.31;;;13.87;52.44
21449;BME280;10885;52.830;13.788;2023-03-14T10:59:12;98593.69;;;13.63;53.01
21449;BME280;10885;52.830;13.788;2023-03-14T11:05:26;98595.28;;;13.55;53.50
21449;BME280;10885;52.830;13.788;2023-03-14T11:10:24;98607.06;;;13.39;53.89
21449;BME280;10885;52.830;13.788;2023-03-14T11:16:08;98603.75;;;13.46;54.26
21449;BME280;10885;52.830;13.788;2023-03-14T11:21:40;98600.34;;;13.48;54.40
21449;BME280;10885;52.830;13.788;2023-03-14T11:33:15;98595.13;;;13.42;53.69
21449;BME280;10885;52.830;13.788;2023-03-14T11:38:49;98593.13;;;13.26;54.72
21449;BME280;10885;52.830;13.788;2023-03-14T11:44:17;98590.66;;;13.30;54.75
21449;BME280;10885;52.830;13.788;2023-03-14T11:49:45;98588.34;;;13.47;54.76
21449;BME280;10885;52.830;13.788;2023-03-14T11:55:32;98590.94;;;13.49;54.96
21449;BME280;10885;52.830;13.788;2023-03-14T12:00:56;98580.53;;;13.41;55.11
21449;BME280;10885;52.830;13.788;2023-03-14T12:06:36;98582.28;;;13.44;54.74
21449;BME280;10885;52.830;13.788;2023-03-14T12:12:03;98580.47;;;13.38;54.81
21449;BME280;10885;52.830;13.788;2023-03-14T12:17:40;98565.00;;;13.37;57.13
21449;BME280;10885;52.830;13.788;2023-03-14T12:23:05;98587.28;;;13.35;58.84
21449;BME280;10885;52.830;13.788;2023-03-14T12:28:32;98578.16;;;13.57;60.85
21449;BME280;10885;52.830;13.788;2023-03-14T12:40:20;98587.47;;;13.47;61.47
21449;BME280;10885;52.830;13.788;2023-03-14T12:51:12;98583.94;;;12.85;67.01
21449;BME280;10885;52.830;13.788;2023-03-14T13:13:25;98550.25;;;14.76;62.61
21449;BME280;10885;52.830;13.788;2023-03-14T13:18:49;98544.56;;;15.23;59.61
21449;BME280;10885;52.830;13.788;2023-03-14T13:24:25;98535.94;;;15.20;58.58
21449;BME280;10885;52.830;13.788;2023-03-14T13:29:48;98531.94;;;15.79;56.60
21449;BME280;10885;52.830;13.788;2023-03-14T13:35:37;98528.22;;;15.23;55.17
21449;BME280;10885;52.830;13.788;2023-03-14T13:41:00;98517.91;;;15.24;56.49
21449;BME280;10885;52.830;13.788;2023-03-14T13:46:22;98517.09;;;15.30;55.00
21449;BME280;10885;52.830;13.788;2023-03-14T13:51:45;98505.28;;;15.86;53.31
21449;BME280;10885;52.830;13.788;2023-03-14T13:57:06;98511.31;;;15.85;51.83
21449;BME280;10885;52.830;13.788;2023-03-14T14:02:27;98509.66;;;16.21;52.40
21449;BME280;10885;52.830;13.788;2023-03-14T14:07:49;98510.47;;;15.95;51.38
21449;BME280;10885;52.830;13.788;2023-03-14T14:13:14;98498.19;;;15.37;53.52
21449;BME280;10885;52.830;13.788;2023-03-14T14:18:40;98508.41;;;15.17;53.95
21449;BME280;10885;52.830;13.788;2023-03-14T14:24:01;98506.75;;;15.31;54.04
21449;BME280;10885;52.830;13.788;2023-03-14T14:29:29;98492.16;;;15.32;52.64
21449;BME280;10885;52.830;13.788;2023-03-14T14:34:58;98488.53;;;15.02;53.65
21449;BME280;10885;52.830;13.788;2023-03-14T14:40:28;98484.66;;;14.48;55.33
21449;BME280;10885;52.830;13.788;2023-03-14T14:45:51;98502.84;;;14.62;56.15
21449;BME280;10885;52.830;13.788;2023-03-14T14:51:23;98487.25;;;14.45;56.81
21449;BME280;10885;52.830;13.788;2023-03-14T14:56:53;98491.84;;;13.88;59.29
21449;BME280;10885;52.830;13.788;2023-03-14T15:02:41;98488.66;;;13.34;61.45
21449;BME280;10885;52.830;13.788;2023-03-14T15:08:10;98498.44;;;13.00;62.86
21449;BME280;10885;52.830;13.788;2023-03-14T15:13:31;98504.41;;;12.96;63.12
21449;BME280;10885;52.830;13.788;2023-03-14T15:18:57;98518.13;;;12.98;63.44
21449;BME280;10885;52.830;13.788;2023-03-14T15:24:18;98527.25;;;12.79;68.72
21449;BME280;10885;52.830;13.788;2023-03-14T15:29:39;98598.91;;;12.58;70.41
21449;BME280;10885;52.830;13.788;2023-03-14T15:35:00;98699.53;;;11.56;66.98
21449;BME280;10885;52.830;13.788;2023-03-14T15:40:26;98744.41;;;9.84;66.74
21449;BME280;10885;52.830;13.788;2023-03-14T15:45:50;98814.94;;;8.30;68.98
21449;BME280;10885;52.830;13.788;2023-03-14T15:51:12;98859.72;;;7.59;71.71
21449;BME280;10885;52.830;13.788;2023-03-14T15:56:33;98910.94;;;7.05;71.54
21449;BME280;10885;52.830;13.788;2023-03-14T16:01:54;98954.13;;;5.77;68.66
21449;BME280;10885;52.830;13.788;2023-03-14T16:07:15;98968.56;;;4.65;70.23
21449;BME280;10885;52.830;13.788;2023-03-14T16:12:35;98980.59;;;3.64;73.11
21449;BME280;10885;52.830;13.788;2023-03-14T16:17:56;99014.81;;;3.29;75.02
21449;BME280;10885;52.830;13.788;2023-03-14T16:23:17;99051.09;;;3.01;76.51
21449;BME280;10885;52.830;13.788;2023-03-14T16:28:38;99058.81;;;2.89;76.58
21449;BME280;10885;52.830;13.788;2023-03-14T16:34:02;99097.34;;;2.85;77.09
21449;BME280;10885;52.830;13.788;2023-03-14T16:39:24;99117.84;;;2.76;77.49
21449;BME280;10885;52.830;13.788;2023-03-14T16:44:48;99154.06;;;2.75;77.27
21449;BME280;10885;52.830;13.788;2023-03-14T16:50:09;99184.44;;;2.75;78.15
21449;BME280;10885;52.830;13.788;2023-03-14T16:55:31;99219.06;;;2.63;78.24
21449;BME280;10885;52.830;13.788;2023-03-14T17:00:51;99254.31;;;2.48;79.14
21449;BME280;10885;52.830;13.788;2023-03-14T17:06:19;99257.44;;;2.32;79.22
21449;BME280;10885;52.830;13.788;2023-03-14T17:11:41;99270.53;;;2.27;79.53
21449;BME280;10885;52.830;13.788;2023-03-14T17:17:01;99282.69;;;2.19;79.87
21449;BME280;10885;52.830;13.788;2023-03-14T17:22:22;99294.34;;;2.17;79.90
21449;BME280;10885;52.830;13.788;2023-03-14T17:27:47;99317.84;;;2.16;80.50
21449;BME280;10885;52.830;13.788;2023-03-14T17:33:08;99359.28;;;2.18;80.33
21449;BME280;10885;52.830;13.788;2023-03-14T17:38:30;99361.59;;;2.15;80.43
21449;BME280;10885;52.830;13.788;2023-03-14T17:43:51;99375.88;;;2.14;80.94
21449;BME280;10885;52.830;13.788;2023-03-14T17:49:12;99411.50;;;2.17;81.04
21449;BME280;10885;52.830;13.788;2023-03-14T17:54:33;99444.38;;;2.17;81.53
21449;BME280;10885;52.830;13.788;2023-03-14T17:59:54;99448.88;;;2.22;81.77
21449;BME280;10885;52.830;13.788;2023-03-14T18:05:16;99470.97;;;2.24;81.40
21449;BME280;10885;52.830;13.788;2023-03-14T18:10:37;99485.91;;;2.21;81.96
21449;BME280;10885;52.830;13.788;2023-03-14T18:15:58;99491.97;;;2.23;81.81
21449;BME280;10885;52.830;13.788;2023-03-14T18:21:20;99512.25;;;2.13;82.19
21449;BME280;10885;52.830;13.788;2023-03-14T18:26:41;99533.50;;;2.15;82.56
21449;BME280;10885;52.830;13.788;2023-03-14T18:32:03;99545.13;;;2.13;82.95
21449;BME280;10885;52.830;13.788;2023-03-14T18:37:27;99562.75;;;2.11;83.52
21449;BME280;10885;52.830;13.788;2023-03-14T18:42:49;99561.84;;;2.11;83.84
21449;BME280;10885;52.830;13.788;2023-03-14T18:48:10;99587.78;;;2.08;84.50
21449;BME280;10885;52.830;13.788;2023-03-14T18:53:31;99596.78;;;2.05;85.12
21449;BME280;10885;52.830;13.788;2023-03-14T18:58:52;99617.25;;;2.08;85.35
21449;BME280;10885;52.830;13.788;2023-03-14T19:04:13;99620.97;;;2.13;85.72
21449;BME280;10885;52.830;13.788;2023-03-14T19:09:34;99633.97;;;2.17;86.05
21449;BME280;10885;52.830;13.788;2023-03-14T19:14:55;99654.41;;;2.21;86.18
21449;BME280;10885;52.830;13.788;2023-03-14T19:20:16;99682.47;;;2.24;86.73
21449;BME280;10885;52.830;13.788;2023-03-14T19:25:37;99688.19;;;2.21;86.79
21449;BME280;10885;52.830;13.788;2023-03-14T19:31:00;99700.72;;;2.19;86.73
21449;BME280;10885;52.830;13.788;2023-03-14T19:36:27;99707.78;;;2.24;86.87
21449;BME280;10885;52.830;13.788;2023-03-14T19:41:48;99716.34;;;2.26;86.80
21449;BME280;10885;52.830;13.788;2023-03-14T19:47:16;99737.03;;;2.32;86.84
21449;BME280;10885;52.830;13.788;2023-03-14T19:52:37;99748.94;;;2.33;86.80
21449;BME280;10885;52.830;13.788;2023-03-14T19:58:03;99757.53;;;2.35;86.55
21449;BME280;10885;52.830;13.788;2023-03-14T20:03:25;99767.63;;;2.35;86.28
21449;BME280;10885;52.830;13.788;2023-03-14T20:08:46;99782.69;;;2.33;86.16
21449;BME280;10885;52.830;13.788;2023-03-14T20:14:08;99791.81;;;2.31;85.74
21449;BME280;10885;52.830;13.788;2023-03-14T20:19:30;99798.63;;;2.32;85.87
21449;BME280;10885;52.830;13.788;2023-03-14T20:24:51;99816.72;;;2.27;85.45
21449;BME280;10885;52.830;13.788;2023-03-14T20:30:14;99837.78;;;2.15;84.65
21449;BME280;10885;52.830;13.788;2023-03-14T20:35:37;99862.06;;;2.13;84.25
21449;BME280;10885;52.830;13.788;2023-03-14T20:40:59;99866.19;;;2.13;84.13
21449;BME280;10885;52.830;13.788;2023-03-14T20:46:20;99887.97;;;2.11;84.13
21449;BME280;10885;52.830;13.788;2023-03-14T20:51:41;99901.03;;;2.05;84.03
21449;BME280;10885;52.830;13.788;2023-03-14T20:57:02;99913.44;;;1.92;83.99
21449;BME280;10885;52.830;13.788;2023-03-14T21:02:23;99922.41;;;1.88;83.97
21449;BME280;10885;52.830;13.788;2023-03-14T21:07:44;99941.47;;;1.85;83.29
21449;BME280;10885;52.830;13.788;2023-03-14T21:13:05;99939.97;;;1.87;83.94
21449;BME280;10885;52.830;13.788;2023-03-14T21:18:26;99955.03;;;1.85;83.57
21449;BME280;10885;52.830;13.788;2023-03-14T21:23:48;99953.47;;;1.77;83.31
21449;BME280;10885;52.830;13.788;2023-03-14T21:29:09;99951.59;;;1.74;82.45
21449;BME280;10885;52.830;13.788;2023-03-14T21:34:30;99946.31;;;1.71;82.25
21449;BME280;10885;52.830;13.788;2023-03-14T21:39:51;99962.22;;;1.60;82.04
21449;BME280;10885;52.830;13.788;2023-03-14T21:45:11;99979.03;;;1.59;81.90
21449;BME280;10885;52.830;13.788;2023-03-14T21:50:32;99987.97;;;1.56;81.62
21449;BME280;10885;52.830;13.788;2023-03-14T21:55:54;100004.88;;;1.47;81.65
21449;BME280;10885;52.830;13.788;2023-03-14T22:01:15;100018.50;;;1.38;82.01
21449;BME280;10885;52.830;13.788;2023-03-14T22:06:36;100033.53;;;1.37;81.98
21449;BME280;10885;52.830;13.788;2023-03-14T22:11:57;100034.28;;;1.26;81.58
21449;BME280;10885;52.830;13.788;2023-03-14T22:17:18;100043.38;;;1.24;81.81
21449;BME280;10885;52.830;13.788;2023-03-14T22:22:40;100051.78;;;1.14;81.48
21449;BME280;10885;52.830;13.788;2023-03-14T22:28:01;100059.56;;;1.07;81.34
21449;BME280;10885;52.830;13.788;2023-03-14T22:33:22;100066.75;;;1.02;81.59
21449;BME280;10885;52.830;13.788;2023-03-14T22:38:43;100077.72;;;1.03;81.12
21449;BME280;10885;52.830;13.788;2023-03-14T22:44:04;100084.06;;;1.08;80.55
21449;BME280;10885;52.830;13.788;2023-03-14T22:49:25;100100.44;;;1.03;80.06
21449;BME280;10885;52.830;13.788;2023-03-14T22:54:46;100097.53;;;0.98;80.25
21449;BME280;10885;52.830;13.788;2023-03-14T23:00:08;100103.81;;;0.93;80.41
21449;BME280;10885;52.830;13.788;2023-03-14T23:05:32;100112.34;;;0.85;80.46
21449;BME280;10885;52.830;13.788;2023-03-14T23:11:02;100114.66;;;0.73;80.88
21449;BME280;10885;52.830;13.788;2023-03-14T23:16:23;100126.75;;;0.67;81.22
21449;BME280;10885;52.830;13.788;2023-03-14T23:21:57;100137.84;;;0.69;80.85
21449;BME280;10885;52.830;13.788;2023-03-14T23:27:18;100153.88;;;0.69;80.89
21449;BME280;10885;52.830;13.788;2023-03-14T23:32:39;100152.09;;;0.68;80.28
21449;BME280;10885;52.830;13.788;2023-03-14T23:38:02;100169.00;;;0.69;80.30
21449;BME280;10885;52.830;13.788;2023-03-14T23:43:23;100176.91;;;0.64;79.87
21449;BME280;10885;52.830;13.788;2023-03-14T23:48:44;100188.09;;;0.57;80.07
21449;BME280;10885;52.830;13.788;2023-03-14T23:54:08;100185.56;;;0.57;80.63
21449;BME280;10885;52.830;13.788;2023-03-14T23:59:32;100188.97;;;0.57;80.25
